sensor_id;sensor_type;location;lat;lon;timestamp;temperature;humidity
2647;DHT22;1333;50.958;6.770;2023-07-24T00:00:40;18.70;99.90
2647;DHT22;1333;50.958;6.770;2023-07-24T00:03:06;18.60;99.90
2647;DHT22;1333;50.958;6.770;2023-07-24T00:05:32;18.50;99.90
2647;DHT22;1333;50.958;6.770;2023-07-24T00:07:57;18.50;99.90
2647;DHT22;1333;50.958;6.770;2023-07-24T00:10:23;18.40;99.90
2647;DHT22;1333;50.958;6.770;2023-07-24T00:12:48;18.30;99.90
2647;DHT22;1333;50.958;6.770;2023-07-24T00:15:14;18.30;99.90
2647;DHT22;1333;50.958;6.770;2023-07-24T00:17:39;18.30;99.90
2647;DHT22;1333;50.958;6.770;2023-07-24T00:20:06;18.20;99.90
2647;DHT22;1333;50.958;6.770;2023-07-24T00:22:31;18.10;99.90
2647;DHT22;1333;50.958;6.770;2023-07-24T00:24:57;18.00;99.90
2647;DHT22;1333;50.958;6.770;2023-07-24T00:27:22;18.00;99.90
2647;DHT22;1333;50.958;6.770;2023-07-24T00:29:48;18.00;99.90
2647;DHT22;1333;50.958;6.770;2023-07-24T00:32:13;18.00;99.90
2647;DHT22;1333;50.958;6.770;2023-07-24T00:34:39;18.00;99.90
2647;DHT22;1333;50.958;6.770;2023-07-24T00:37:05;18.00;99.90
2647;DHT22;1333;50.958;6.770;2023-07-24T00:39:30;18.00;99.90
2647;DHT22;1333;50.958;6.770;2023-07-24T00:41:56;18.00;99.90
2647;DHT22;1333;50.958;6.770;2023-07-24T00:44:21;18.00;99.90
2647;DHT22;1333;50.958;6.770;2023-07-24T00:46:47;18.00;99.90
2647;DHT22;1333;50.958;6.770;2023-07-24T00:49:13;18.00;99.90
2647;DHT22;1333;50.958;6.770;2023-07-24T00:51:39;18.00;99.90
2647;DHT22;1333;50.958;6.770;2023-07-24T00:54:06;18.00;99.90
2647;DHT22;1333;50.958;6.770;2023-07-24T00:56:32;18.00;99.90
2647;DHT22;1333;50.958;6.770;2023-07-24T00:59:00;18.00;99.90
2647;DHT22;1333;50.958;6.770;2023-07-24T01:01:26;18.00;99.90
2647;DHT22;1333;50.958;6.770;2023-07-24T01:03:52;17.90;99.90
2647;DHT22;1333;50.958;6.770;2023-07-24T01:06:18;17.90;99.90
2647;DHT22;1333;50.958;6.770;2023-07-24T01:08:44;17.90;99.90
2647;DHT22;1333;50.958;6.770;2023-07-24T01:11:18;17.80;99.90
2647;DHT22;1333;50.958;6.770;2023-07-24T01:13:57;17.80;99.90
2647;DHT22;1333;50.958;6.770;2023-07-24T01:16:33;17.70;99.90
2647;DHT22;1333;50.958;6.770;2023-07-24T01:19:04;17.60;99.90
2647;DHT22;1333;50.958;6.770;2023-07-24T01:21:48;17.60;99.90
2647;DHT22;1333;50.958;6.770;2023-07-24T01:24:27;17.60;99.90
2647;DHT22;1333;50.958;6.770;2023-07-24T01:26:55;17.50;99.90
2647;DHT22;1333;50.958;6.770;2023-07-24T01:29:20;17.50;99.90
2647;DHT22;1333;50.958;6.770;2023-07-24T01:31:46;17.50;99.90
2647;DHT22;1333;50.958;6.770;2023-07-24T01:34:12;17.60;99.90
2647;DHT22;1333;50.958;6.770;2023-07-24T01:36:37;17.60;99.90
2647;DHT22;1333;50.958;6.770;2023-07-24T01:39:03;17.60;99.90
2647;DHT22;1333;50.958;6.770;2023-07-24T01:41:28;17.60;99.90
2647;DHT22;1333;50.958;6.770;2023-07-24T01:43:54;17.70;99.90
2647;DHT22;1333;50.958;6.770;2023-07-24T01:46:20;17.70;99.90
2647;DHT22;1333;50.958;6.770;2023-07-24T01:48:45;17.70;99.90
2647;DHT22;1333;50.958;6.770;2023-07-24T01:51:11;17.70;99.90
2647;DHT22;1333;50.958;6.770;2023-07-24T01:53:37;17.60;99.90
2647;DHT22;1333;50.958;6.770;2023-07-24T01:56:03;17.70;99.90
2647;DHT22;1333;50.958;6.770;2023-07-24T01:58:28;17.70;99.90
2647;DHT22;1333;50.958;6.770;2023-07-24T02:00:55;17.70;99.90
2647;DHT22;1333;50.958;6.770;2023-07-24T02:03:21;17.80;99.90
2647;DHT22;1333;50.958;6.770;2023-07-24T02:05:50;17.80;99.90
2647;DHT22;1333;50.958;6.770;2023-07-24T02:08:16;17.80;99.90
2647;DHT22;1333;50.958;6.770;2023-07-24T02:10:42;17.80;99.90
2647;DHT22;1333;50.958;6.770;2023-07-24T02:13:07;17.80;99.90
2647;DHT22;1333;50.958;6.770;2023-07-24T02:15:33;17.90;99.90
2647;DHT22;1333;50.958;6.770;2023-07-24T02:17:58;18.00;99.90
2647;DHT22;1333;50.958;6.770;2023-07-24T02:20:24;18.00;99.90
2647;DHT22;1333;50.958;6.770;2023-07-24T02:22:49;18.00;99.90
2647;DHT22;1333;50.958;6.770;2023-07-24T02:25:15;18.10;99.90
2647;DHT22;1333;50.958;6.770;2023-07-24T02:27:40;18.20;99.90
2647;DHT22;1333;50.958;6.770;2023-07-24T02:30:06;18.20;99.90
2647;DHT22;1333;50.958;6.770;2023-07-24T02:32:32;18.10;99.90
2647;DHT22;1333;50.958;6.770;2023-07-24T02:34:58;18.20;99.90
2647;DHT22;1333;50.958;6.770;2023-07-24T02:37:23;18.20;99.90
2647;DHT22;1333;50.958;6.770;2023-07-24T02:39:49;18.20;99.90
2647;DHT22;1333;50.958;6.770;2023-07-24T02:42:14;18.20;99.90
2647;DHT22;1333;50.958;6.770;2023-07-24T02:44:40;18.20;99.90
2647;DHT22;1333;50.958;6.770;2023-07-24T02:47:05;18.30;99.90
2647;DHT22;1333;50.958;6.770;2023-07-24T02:49:31;18.30;99.90
2647;DHT22;1333;50.958;6.770;2023-07-24T02:51:57;18.40;99.90
2647;DHT22;1333;50.958;6.770;2023-07-24T02:54:22;18.50;99.90
2647;DHT22;1333;50.958;6.770;2023-07-24T02:56:48;18.40;99.90
2647;DHT22;1333;50.958;6.770;2023-07-24T02:59:13;18.40;99.90
2647;DHT22;1333;50.958;6.770;2023-07-24T03:01:39;18.40;99.90
2647;DHT22;1333;50.958;6.770;2023-07-24T03:04:04;18.40;99.90
2647;DHT22;1333;50.958;6.770;2023-07-24T03:06:31;18.40;99.90
2647;DHT22;1333;50.958;6.770;2023-07-24T03:08:57;18.40;99.90
2647;DHT22;1333;50.958;6.770;2023-07-24T03:11:22;18.40;99.90
2647;DHT22;1333;50.958;6.770;2023-07-24T03:13:48;18.40;99.90
2647;DHT22;1333;50.958;6.770;2023-07-24T03:16:13;18.30;99.90
2647;DHT22;1333;50.958;6.770;2023-07-24T03:18:39;18.30;99.90
2647;DHT22;1333;50.958;6.770;2023-07-24T03:21:04;18.30;99.90
2647;DHT22;1333;50.958;6.770;2023-07-24T03:23:30;18.20;99.90
2647;DHT22;1333;50.958;6.770;2023-07-24T03:25:55;18.20;99.90
2647;DHT22;1333;50.958;6.770;2023-07-24T03:28:21;18.20;99.90
2647;DHT22;1333;50.958;6.770;2023-07-24T03:30:46;18.10;99.90
2647;DHT22;1333;50.958;6.770;2023-07-24T03:33:12;18.10;99.90
2647;DHT22;1333;50.958;6.770;2023-07-24T03:35:38;18.00;99.90
2647;DHT22;1333;50.958;6.770;2023-07-24T03:38:04;18.00;99.90
2647;DHT22;1333;50.958;6.770;2023-07-24T03:40:30;17.90;99.90
2647;DHT22;1333;50.958;6.770;2023-07-24T03:42:55;18.00;99.90
2647;DHT22;1333;50.958;6.770;2023-07-24T03:45:21;17.90;99.90
2647;DHT22;1333;50.958;6.770;2023-07-24T03:47:47;18.00;99.90
2647;DHT22;1333;50.958;6.770;2023-07-24T03:50:12;18.00;99.90
2647;DHT22;1333;50.958;6.770;2023-07-24T03:52:38;17.90;99.90
2647;DHT22;1333;50.958;6.770;2023-07-24T03:55:03;18.00;99.90
2647;DHT22;1333;50.958;6.770;2023-07-24T03:57:29;18.00;99.90
2647;DHT22;1333;50.958;6.770;2023-07-24T03:59:54;18.00;99.90
2647;DHT22;1333;50.958;6.770;2023-07-24T04:02:20;18.00;99.90
2647;DHT22;1333;50.958;6.770;2023-07-24T04:04:47;18.10;99.90
2647;DHT22;1333;50.958;6.770;2023-07-24T04:07:12;18.00;99.90
2647;DHT22;1333;50.958;6.770;2023-07-24T04:09:38;18.00;99.90
2647;DHT22;1333;50.958;6.770;2023-07-24T04:12:03;18.00;99.90
2647;DHT22;1333;50.958;6.770;2023-07-24T04:14:29;18.10;99.90
2647;DHT22;1333;50.958;6.770;2023-07-24T04:16:55;18.20;99.90
2647;DHT22;1333;50.958;6.770;2023-07-24T04:19:21;18.20;99.90
2647;DHT22;1333;50.958;6.770;2023-07-24T04:21:46;18.20;99.90
2647;DHT22;1333;50.958;6.770;2023-07-24T04:24:12;18.20;99.90
2647;DHT22;1333;50.958;6.770;2023-07-24T04:26:37;18.20;99.90
2647;DHT22;1333;50.958;6.770;2023-07-24T04:29:05;18.20;99.90
2647;DHT22;1333;50.958;6.770;2023-07-24T04:31:30;18.30;99.90
2647;DHT22;1333;50.958;6.770;2023-07-24T04:33:56;18.30;99.90
2647;DHT22;1333;50.958;6.770;2023-07-24T04:36:21;18.30;99.90
2647;DHT22;1333;50.958;6.770;2023-07-24T04:38:47;18.40;99.90
2647;DHT22;1333;50.958;6.770;2023-07-24T04:41:12;18.40;99.90
2647;DHT22;1333;50.958;6.770;2023-07-24T04:43:38;18.50;99.90
2647;DHT22;1333;50.958;6.770;2023-07-24T04:46:03;18.50;99.90
2647;DHT22;1333;50.958;6.770;2023-07-24T04:48:29;18.50;99.90
2647;DHT22;1333;50.958;6.770;2023-07-24T04:50:55;18.50;99.90
2647;DHT22;1333;50.958;6.770;2023-07-24T04:53:21;18.50;99.90
2647;DHT22;1333;50.958;6.770;2023-07-24T04:55:47;18.40;99.90
2647;DHT22;1333;50.958;6.770;2023-07-24T04:58:12;18.50;99.90
2647;DHT22;1333;50.958;6.770;2023-07-24T05:00:38;18.50;99.90
2647;DHT22;1333;50.958;6.770;2023-07-24T05:03:04;18.40;99.90
2647;DHT22;1333;50.958;6.770;2023-07-24T05:05:30;18.50;99.90
2647;DHT22;1333;50.958;6.770;2023-07-24T05:07:56;18.50;99.90
2647;DHT22;1333;50.958;6.770;2023-07-24T05:10:22;18.70;99.90
2647;DHT22;1333;50.958;6.770;2023-07-24T05:12:47;18.80;99.90
2647;DHT22;1333;50.958;6.770;2023-07-24T05:15:13;18.90;99.90
2647;DHT22;1333;50.958;6.770;2023-07-24T05:17:42;19.00;99.90
2647;DHT22;1333;50.958;6.770;2023-07-24T05:20:08;19.00;99.90
2647;DHT22;1333;50.958;6.770;2023-07-24T05:22:34;19.10;99.90
2647;DHT22;1333;50.958;6.770;2023-07-24T05:25:00;19.20;99.90
2647;DHT22;1333;50.958;6.770;2023-07-24T05:27:25;19.10;99.90
2647;DHT22;1333;50.958;6.770;2023-07-24T05:29:52;19.30;99.90
2647;DHT22;1333;50.958;6.770;2023-07-24T05:32:17;19.40;99.90
2647;DHT22;1333;50.958;6.770;2023-07-24T05:34:43;19.60;99.90
2647;DHT22;1333;50.958;6.770;2023-07-24T05:37:08;19.80;99.90
2647;DHT22;1333;50.958;6.770;2023-07-24T05:39:35;20.00;99.90
2647;DHT22;1333;50.958;6.770;2023-07-24T05:42:00;20.20;99.90
2647;DHT22;1333;50.958;6.770;2023-07-24T05:44:26;20.40;99.90
2647;DHT22;1333;50.958;6.770;2023-07-24T05:46:51;20.60;99.90
2647;DHT22;1333;50.958;6.770;2023-07-24T05:49:17;20.70;99.90
2647;DHT22;1333;50.958;6.770;2023-07-24T05:51:42;20.80;99.90
2647;DHT22;1333;50.958;6.770;2023-07-24T05:54:08;20.80;99.90
2647;DHT22;1333;50.958;6.770;2023-07-24T05:56:33;21.00;99.90
2647;DHT22;1333;50.958;6.770;2023-07-24T05:58:59;21.10;99.90
2647;DHT22;1333;50.958;6.770;2023-07-24T06:01:24;21.40;99.90
2647;DHT22;1333;50.958;6.770;2023-07-24T06:03:49;21.80;99.90
2647;DHT22;1333;50.958;6.770;2023-07-24T06:06:15;22.20;99.90
2647;DHT22;1333;50.958;6.770;2023-07-24T06:08:41;22.30;99.90
2647;DHT22;1333;50.958;6.770;2023-07-24T06:11:06;22.20;99.90
2647;DHT22;1333;50.958;6.770;2023-07-24T06:13:32;22.20;99.90
2647;DHT22;1333;50.958;6.770;2023-07-24T06:15:57;22.30;99.90
2647;DHT22;1333;50.958;6.770;2023-07-24T06:18:23;22.30;99.90
2647;DHT22;1333;50.958;6.770;2023-07-24T06:20:53;22.40;99.90
2647;DHT22;1333;50.958;6.770;2023-07-24T06:23:18;22.40;99.90
2647;DHT22;1333;50.958;6.770;2023-07-24T06:25:44;22.40;99.90
2647;DHT22;1333;50.958;6.770;2023-07-24T06:28:09;22.30;99.90
2647;DHT22;1333;50.958;6.770;2023-07-24T06:30:35;22.30;99.90
2647;DHT22;1333;50.958;6.770;2023-07-24T06:33:00;22.20;99.90
2647;DHT22;1333;50.958;6.770;2023-07-24T06:35:26;21.90;99.90
2647;DHT22;1333;50.958;6.770;2023-07-24T06:37:51;21.70;99.90
2647;DHT22;1333;50.958;6.770;2023-07-24T06:40:17;21.60;99.90
2647;DHT22;1333;50.958;6.770;2023-07-24T06:42:42;21.70;99.90
2647;DHT22;1333;50.958;6.770;2023-07-24T06:45:08;21.70;99.90
2647;DHT22;1333;50.958;6.770;2023-07-24T06:47:34;21.70;99.90
2647;DHT22;1333;50.958;6.770;2023-07-24T06:49:59;21.60;99.90
2647;DHT22;1333;50.958;6.770;2023-07-24T06:52:25;21.60;99.90
2647;DHT22;1333;50.958;6.770;2023-07-24T06:54:50;21.60;99.90
2647;DHT22;1333;50.958;6.770;2023-07-24T06:57:15;21.70;99.90
2647;DHT22;1333;50.958;6.770;2023-07-24T06:59:41;21.90;99.90
2647;DHT22;1333;50.958;6.770;2023-07-24T07:02:07;22.00;99.90
2647;DHT22;1333;50.958;6.770;2023-07-24T07:04:32;22.30;99.90
2647;DHT22;1333;50.958;6.770;2023-07-24T07:06:58;22.70;99.90
2647;DHT22;1333;50.958;6.770;2023-07-24T07:09:23;22.90;99.90
2647;DHT22;1333;50.958;6.770;2023-07-24T07:11:48;23.00;99.90
2647;DHT22;1333;50.958;6.770;2023-07-24T07:14:14;23.10;99.90
2647;DHT22;1333;50.958;6.770;2023-07-24T07:16:39;23.00;99.90
2647;DHT22;1333;50.958;6.770;2023-07-24T07:19:06;22.90;99.90
2647;DHT22;1333;50.958;6.770;2023-07-24T07:21:31;22.60;99.90
2647;DHT22;1333;50.958;6.770;2023-07-24T07:23:57;22.50;99.90
2647;DHT22;1333;50.958;6.770;2023-07-24T07:26:22;22.60;99.90
2647;DHT22;1333;50.958;6.770;2023-07-24T07:28:48;22.50;99.90
2647;DHT22;1333;50.958;6.770;2023-07-24T07:31:14;22.60;99.90
2647;DHT22;1333;50.958;6.770;2023-07-24T07:33:39;22.80;99.90
2647;DHT22;1333;50.958;6.770;2023-07-24T07:36:05;23.00;99.90
2647;DHT22;1333;50.958;6.770;2023-07-24T07:38:31;23.00;99.90
2647;DHT22;1333;50.958;6.770;2023-07-24T07:40:57;23.20;99.90
2647;DHT22;1333;50.958;6.770;2023-07-24T07:43:22;23.60;99.90
2647;DHT22;1333;50.958;6.770;2023-07-24T07:45:48;24.00;99.90
2647;DHT22;1333;50.958;6.770;2023-07-24T07:48:13;24.10;99.90
2647;DHT22;1333;50.958;6.770;2023-07-24T07:50:39;24.30;99.90
2647;DHT22;1333;50.958;6.770;2023-07-24T07:53:04;24.20;99.90
2647;DHT22;1333;50.958;6.770;2023-07-24T07:55:30;24.30;99.90
2647;DHT22;1333;50.958;6.770;2023-07-24T07:57:56;24.20;99.90
2647;DHT22;1333;50.958;6.770;2023-07-24T08:00:21;24.10;99.90
2647;DHT22;1333;50.958;6.770;2023-07-24T08:02:47;24.00;99.90
2647;DHT22;1333;50.958;6.770;2023-07-24T08:05:12;23.90;99.90
2647;DHT22;1333;50.958;6.770;2023-07-24T08:07:38;24.40;99.90
2647;DHT22;1333;50.958;6.770;2023-07-24T08:10:04;24.90;99.90
2647;DHT22;1333;50.958;6.770;2023-07-24T08:12:29;25.10;99.90
2647;DHT22;1333;50.958;6.770;2023-07-24T08:14:58;24.90;99.90
2647;DHT22;1333;50.958;6.770;2023-07-24T08:17:23;24.70;99.90
2647;DHT22;1333;50.958;6.770;2023-07-24T08:19:49;24.50;99.90
2647;DHT22;1333;50.958;6.770;2023-07-24T08:22:14;24.10;99.90
2647;DHT22;1333;50.958;6.770;2023-07-24T08:24:40;23.80;99.90
2647;DHT22;1333;50.958;6.770;2023-07-24T08:27:06;23.70;99.90
2647;DHT22;1333;50.958;6.770;2023-07-24T08:29:31;23.70;99.90
2647;DHT22;1333;50.958;6.770;2023-07-24T08:31:58;23.70;99.90
2647;DHT22;1333;50.958;6.770;2023-07-24T08:34:24;23.60;99.90
2647;DHT22;1333;50.958;6.770;2023-07-24T08:36:49;23.80;99.90
2647;DHT22;1333;50.958;6.770;2023-07-24T08:39:14;24.00;99.90
2647;DHT22;1333;50.958;6.770;2023-07-24T08:41:40;24.30;99.90
2647;DHT22;1333;50.958;6.770;2023-07-24T08:44:08;24.80;99.90
2647;DHT22;1333;50.958;6.770;2023-07-24T08:46:37;25.00;99.90
2647;DHT22;1333;50.958;6.770;2023-07-24T08:49:04;25.50;99.90
2647;DHT22;1333;50.958;6.770;2023-07-24T08:51:30;25.60;99.90
2647;DHT22;1333;50.958;6.770;2023-07-24T08:53:57;25.20;99.90
2647;DHT22;1333;50.958;6.770;2023-07-24T08:56:22;24.90;99.90
2647;DHT22;1333;50.958;6.770;2023-07-24T08:58:48;24.50;99.90
2647;DHT22;1333;50.958;6.770;2023-07-24T09:01:14;24.40;99.90
2647;DHT22;1333;50.958;6.770;2023-07-24T09:03:40;24.30;99.90
2647;DHT22;1333;50.958;6.770;2023-07-24T09:06:05;24.00;99.90
2647;DHT22;1333;50.958;6.770;2023-07-24T09:08:39;24.00;99.90
2647;DHT22;1333;50.958;6.770;2023-07-24T09:11:06;24.30;99.90
2647;DHT22;1333;50.958;6.770;2023-07-24T09:13:32;24.60;99.90
2647;DHT22;1333;50.958;6.770;2023-07-24T09:15:58;24.80;99.90
2647;DHT22;1333;50.958;6.770;2023-07-24T09:18:24;25.00;99.90
2647;DHT22;1333;50.958;6.770;2023-07-24T09:20:50;24.90;99.90
2647;DHT22;1333;50.958;6.770;2023-07-24T09:23:16;24.70;99.90
2647;DHT22;1333;50.958;6.770;2023-07-24T09:25:50;24.50;99.90
2647;DHT22;1333;50.958;6.770;2023-07-24T09:28:17;24.50;99.90
2647;DHT22;1333;50.958;6.770;2023-07-24T09:30:52;24.50;99.90
2647;DHT22;1333;50.958;6.770;2023-07-24T09:33:17;24.70;99.90
2647;DHT22;1333;50.958;6.770;2023-07-24T09:35:43;24.90;99.90
2647;DHT22;1333;50.958;6.770;2023-07-24T09:38:10;25.20;99.90
2647;DHT22;1333;50.958;6.770;2023-07-24T09:40:44;25.60;99.90
2647;DHT22;1333;50.958;6.770;2023-07-24T09:43:17;25.70;99.90
2647;DHT22;1333;50.958;6.770;2023-07-24T09:45:43;25.80;99.90
2647;DHT22;1333;50.958;6.770;2023-07-24T09:48:12;25.90;99.90
2647;DHT22;1333;50.958;6.770;2023-07-24T09:50:57;26.50;99.90
2647;DHT22;1333;50.958;6.770;2023-07-24T09:56:14;29.40;99.90
2647;DHT22;1333;50.958;6.770;2023-07-24T09:58:40;30.00;95.40
2647;DHT22;1333;50.958;6.770;2023-07-24T10:01:08;29.90;90.60
2647;DHT22;1333;50.958;6.770;2023-07-24T10:03:35;29.60;86.90
2647;DHT22;1333;50.958;6.770;2023-07-24T10:06:02;29.30;88.30
2647;DHT22;1333;50.958;6.770;2023-07-24T10:08:27;29.00;88.60
2647;DHT22;1333;50.958;6.770;2023-07-24T10:10:53;28.90;90.30
2647;DHT22;1333;50.958;6.770;2023-07-24T10:13:20;28.80;90.40
2647;DHT22;1333;50.958;6.770;2023-07-24T10:15:48;28.40;89.90
2647;DHT22;1333;50.958;6.770;2023-07-24T10:18:16;28.10;90.50
2647;DHT22;1333;50.958;6.770;2023-07-24T10:20:43;28.10;92.20
2647;DHT22;1333;50.958;6.770;2023-07-24T10:23:10;29.00;93.40
2647;DHT22;1333;50.958;6.770;2023-07-24T10:25:38;31.20;91.60
2647;DHT22;1333;50.958;6.770;2023-07-24T10:28:10;32.50;79.40
2647;DHT22;1333;50.958;6.770;2023-07-24T10:30:37;33.70;70.20
2647;DHT22;1333;50.958;6.770;2023-07-24T10:33:05;34.10;63.10
2647;DHT22;1333;50.958;6.770;2023-07-24T10:38:07;33.10;58.30
2647;DHT22;1333;50.958;6.770;2023-07-24T10:40:33;32.30;58.70
2647;DHT22;1333;50.958;6.770;2023-07-24T10:43:00;31.60;60.40
2647;DHT22;1333;50.958;6.770;2023-07-24T10:45:26;31.20;62.30
2647;DHT22;1333;50.958;6.770;2023-07-24T10:47:52;30.80;63.40
2647;DHT22;1333;50.958;6.770;2023-07-24T10:50:19;30.10;64.60
2647;DHT22;1333;50.958;6.770;2023-07-24T10:52:44;29.60;67.70
2647;DHT22;1333;50.958;6.770;2023-07-24T10:55:10;29.30;70.20
2647;DHT22;1333;50.958;6.770;2023-07-24T10:57:35;28.90;72.50
2647;DHT22;1333;50.958;6.770;2023-07-24T11:00:01;28.60;74.30
2647;DHT22;1333;50.958;6.770;2023-07-24T11:02:26;28.90;78.40
2647;DHT22;1333;50.958;6.770;2023-07-24T11:04:52;29.40;79.00
2647;DHT22;1333;50.958;6.770;2023-07-24T11:07:17;30.20;77.70
2647;DHT22;1333;50.958;6.770;2023-07-24T11:09:43;30.60;75.60
2647;DHT22;1333;50.958;6.770;2023-07-24T11:12:15;30.90;73.30
2647;DHT22;1333;50.958;6.770;2023-07-24T11:14:48;31.30;75.90
2647;DHT22;1333;50.958;6.770;2023-07-24T11:17:14;31.10;75.10
2647;DHT22;1333;50.958;6.770;2023-07-24T11:19:40;30.70;75.00
2647;DHT22;1333;50.958;6.770;2023-07-24T11:22:06;30.20;76.50
2647;DHT22;1333;50.958;6.770;2023-07-24T11:24:32;29.50;78.80
2647;DHT22;1333;50.958;6.770;2023-07-24T11:26:57;28.80;82.90
2647;DHT22;1333;50.958;6.770;2023-07-24T11:29:23;28.20;89.30
2647;DHT22;1333;50.958;6.770;2023-07-24T11:31:58;27.60;92.60
2647;DHT22;1333;50.958;6.770;2023-07-24T11:34:24;27.00;99.90
2647;DHT22;1333;50.958;6.770;2023-07-24T11:36:50;26.10;99.90
2647;DHT22;1333;50.958;6.770;2023-07-24T11:39:23;25.00;99.90
2647;DHT22;1333;50.958;6.770;2023-07-24T11:41:49;24.10;99.90
2647;DHT22;1333;50.958;6.770;2023-07-24T11:44:14;23.70;99.90
2647;DHT22;1333;50.958;6.770;2023-07-24T11:46:42;23.70;99.90
2647;DHT22;1333;50.958;6.770;2023-07-24T11:49:08;24.40;99.90
2647;DHT22;1333;50.958;6.770;2023-07-24T11:51:36;26.20;99.90
2647;DHT22;1333;50.958;6.770;2023-07-24T11:54:11;28.60;99.90
2647;DHT22;1333;50.958;6.770;2023-07-24T11:56:37;31.70;99.90
2647;DHT22;1333;50.958;6.770;2023-07-24T11:59:12;35.20;99.90
2647;DHT22;1333;50.958;6.770;2023-07-24T12:01:38;38.40;90.20
2647;DHT22;1333;50.958;6.770;2023-07-24T12:04:04;39.60;69.00
2647;DHT22;1333;50.958;6.770;2023-07-24T12:06:32;39.10;57.70
2647;DHT22;1333;50.958;6.770;2023-07-24T12:09:04;37.30;55.80
2647;DHT22;1333;50.958;6.770;2023-07-24T12:11:31;35.40;57.80
2647;DHT22;1333;50.958;6.770;2023-07-24T12:13:57;33.70;61.30
2647;DHT22;1333;50.958;6.770;2023-07-24T12:16:22;32.20;68.20
2647;DHT22;1333;50.958;6.770;2023-07-24T12:18:48;31.10;77.60
2647;DHT22;1333;50.958;6.770;2023-07-24T12:21:14;30.40;87.90
2647;DHT22;1333;50.958;6.770;2023-07-24T12:23:39;30.00;95.10
2647;DHT22;1333;50.958;6.770;2023-07-24T12:26:05;30.20;99.90
2647;DHT22;1333;50.958;6.770;2023-07-24T12:28:30;32.60;99.90
2647;DHT22;1333;50.958;6.770;2023-07-24T12:30:56;34.90;99.90
2647;DHT22;1333;50.958;6.770;2023-07-24T12:33:21;37.70;91.70
2647;DHT22;1333;50.958;6.770;2023-07-24T12:35:49;40.70;76.50
2647;DHT22;1333;50.958;6.770;2023-07-24T12:38:15;43.40;59.70
2647;DHT22;1333;50.958;6.770;2023-07-24T12:40:40;45.40;52.60
2647;DHT22;1333;50.958;6.770;2023-07-24T12:43:06;47.20;47.20
2647;DHT22;1333;50.958;6.770;2023-07-24T12:45:31;48.80;43.90
2647;DHT22;1333;50.958;6.770;2023-07-24T12:47:57;49.70;40.40
2647;DHT22;1333;50.958;6.770;2023-07-24T12:50:22;48.30;35.90
2647;DHT22;1333;50.958;6.770;2023-07-24T12:52:48;45.80;35.70
2647;DHT22;1333;50.958;6.770;2023-07-24T12:55:14;42.90;36.20
2647;DHT22;1333;50.958;6.770;2023-07-24T12:57:39;40.60;38.80
2647;DHT22;1333;50.958;6.770;2023-07-24T13:00:06;38.10;39.80
2647;DHT22;1333;50.958;6.770;2023-07-24T13:02:31;36.20;42.90
2647;DHT22;1333;50.958;6.770;2023-07-24T13:04:57;34.80;46.30
2647;DHT22;1333;50.958;6.770;2023-07-24T13:07:23;34.30;50.60
2647;DHT22;1333;50.958;6.770;2023-07-24T13:09:48;35.40;53.60
2647;DHT22;1333;50.958;6.770;2023-07-24T13:12:14;37.50;52.40
2647;DHT22;1333;50.958;6.770;2023-07-24T13:14:39;39.60;50.00
2647;DHT22;1333;50.958;6.770;2023-07-24T13:17:05;41.50;47.40
2647;DHT22;1333;50.958;6.770;2023-07-24T13:19:32;42.90;45.50
2647;DHT22;1333;50.958;6.770;2023-07-24T13:21:57;43.90;40.40
2647;DHT22;1333;50.958;6.770;2023-07-24T13:24:23;44.50;40.20
2647;DHT22;1333;50.958;6.770;2023-07-24T13:26:48;44.40;39.80
2647;DHT22;1333;50.958;6.770;2023-07-24T13:29:14;42.70;39.40
2647;DHT22;1333;50.958;6.770;2023-07-24T13:31:40;40.80;40.20
2647;DHT22;1333;50.958;6.770;2023-07-24T13:34:06;39.10;41.90
2647;DHT22;1333;50.958;6.770;2023-07-24T13:36:33;37.60;43.90
2647;DHT22;1333;50.958;6.770;2023-07-24T13:38:58;36.30;45.50
2647;DHT22;1333;50.958;6.770;2023-07-24T13:41:24;34.90;46.20
2647;DHT22;1333;50.958;6.770;2023-07-24T13:43:49;33.70;47.90
2647;DHT22;1333;50.958;6.770;2023-07-24T13:46:15;32.60;49.30
2647;DHT22;1333;50.958;6.770;2023-07-24T13:48:40;31.50;50.40
2647;DHT22;1333;50.958;6.770;2023-07-24T13:51:06;30.40;52.40
2647;DHT22;1333;50.958;6.770;2023-07-24T13:53:31;29.70;55.10
2647;DHT22;1333;50.958;6.770;2023-07-24T13:55:57;29.00;57.60
2647;DHT22;1333;50.958;6.770;2023-07-24T13:58:22;28.50;59.90
2647;DHT22;1333;50.958;6.770;2023-07-24T14:00:48;27.90;65.00
2647;DHT22;1333;50.958;6.770;2023-07-24T14:03:13;27.50;71.40
2647;DHT22;1333;50.958;6.770;2023-07-24T14:05:39;27.10;84.70
2647;DHT22;1333;50.958;6.770;2023-07-24T14:08:07;26.80;95.50
2647;DHT22;1333;50.958;6.770;2023-07-24T14:10:32;26.60;99.90
2647;DHT22;1333;50.958;6.770;2023-07-24T14:12:58;26.60;99.90
2647;DHT22;1333;50.958;6.770;2023-07-24T14:15:24;26.80;99.90
2647;DHT22;1333;50.958;6.770;2023-07-24T14:17:49;26.90;99.90
2647;DHT22;1333;50.958;6.770;2023-07-24T14:20:15;26.90;99.90
2647;DHT22;1333;50.958;6.770;2023-07-24T14:22:40;26.70;99.90
2647;DHT22;1333;50.958;6.770;2023-07-24T14:25:06;26.70;99.90
2647;DHT22;1333;50.958;6.770;2023-07-24T14:27:32;26.70;99.90
2647;DHT22;1333;50.958;6.770;2023-07-24T14:29:58;26.70;99.90
2647;DHT22;1333;50.958;6.770;2023-07-24T14:32:23;27.00;99.90
2647;DHT22;1333;50.958;6.770;2023-07-24T14:34:51;27.40;99.90
2647;DHT22;1333;50.958;6.770;2023-07-24T14:37:18;27.60;99.90
2647;DHT22;1333;50.958;6.770;2023-07-24T14:39:44;27.60;99.90
2647;DHT22;1333;50.958;6.770;2023-07-24T14:42:13;27.20;99.90
2647;DHT22;1333;50.958;6.770;2023-07-24T14:44:38;26.90;99.90
2647;DHT22;1333;50.958;6.770;2023-07-24T14:47:04;26.50;99.90
2647;DHT22;1333;50.958;6.770;2023-07-24T14:49:30;26.40;99.90
2647;DHT22;1333;50.958;6.770;2023-07-24T14:51:55;26.40;99.90
2647;DHT22;1333;50.958;6.770;2023-07-24T14:54:21;26.10;99.90
2647;DHT22;1333;50.958;6.770;2023-07-24T14:56:46;26.10;99.90
2647;DHT22;1333;50.958;6.770;2023-07-24T14:59:12;26.30;99.90
2647;DHT22;1333;50.958;6.770;2023-07-24T15:01:37;26.30;99.90
2647;DHT22;1333;50.958;6.770;2023-07-24T15:04:03;26.50;99.90
2647;DHT22;1333;50.958;6.770;2023-07-24T15:06:28;26.60;99.90
2647;DHT22;1333;50.958;6.770;2023-07-24T15:08:54;26.60;99.90
2647;DHT22;1333;50.958;6.770;2023-07-24T15:11:22;26.00;99.90
2647;DHT22;1333;50.958;6.770;2023-07-24T15:13:49;25.70;99.90
2647;DHT22;1333;50.958;6.770;2023-07-24T15:16:14;25.50;99.90
2647;DHT22;1333;50.958;6.770;2023-07-24T15:18:40;25.20;99.90
2647;DHT22;1333;50.958;6.770;2023-07-24T15:21:06;25.00;99.90
2647;DHT22;1333;50.958;6.770;2023-07-24T15:23:31;25.00;99.90
2647;DHT22;1333;50.958;6.770;2023-07-24T15:25:58;25.10;99.90
2647;DHT22;1333;50.958;6.770;2023-07-24T15:28:24;25.20;99.90
2647;DHT22;1333;50.958;6.770;2023-07-24T15:30:50;25.30;99.90
2647;DHT22;1333;50.958;6.770;2023-07-24T15:33:16;25.40;99.90
2647;DHT22;1333;50.958;6.770;2023-07-24T15:35:42;25.50;99.90
2647;DHT22;1333;50.958;6.770;2023-07-24T15:38:07;25.60;99.90
2647;DHT22;1333;50.958;6.770;2023-07-24T15:40:33;25.50;99.90
2647;DHT22;1333;50.958;6.770;2023-07-24T15:42:59;25.40;99.90
2647;DHT22;1333;50.958;6.770;2023-07-24T15:45:24;25.40;99.90
2647;DHT22;1333;50.958;6.770;2023-07-24T15:47:50;25.30;99.90
2647;DHT22;1333;50.958;6.770;2023-07-24T15:50:15;25.30;99.90
2647;DHT22;1333;50.958;6.770;2023-07-24T15:52:41;25.30;99.90
2647;DHT22;1333;50.958;6.770;2023-07-24T15:55:07;25.30;99.90
2647;DHT22;1333;50.958;6.770;2023-07-24T15:57:32;25.40;99.90
2647;DHT22;1333;50.958;6.770;2023-07-24T15:59:58;25.50;99.90